Time,TemperatureF,DewpointF,PressureIn,WindDirection,WindDirectionDegrees,WindSpeedMPH,WindSpeedGustMPH,Humidity,HourlyPrecipIn,Conditions,Clouds,dailyrainin,SoftwareType,DateUTC
2013-10-21 00:04:00,41.0,37.0,29.97,SE,134,0.0,0.0,84,0.00,,,0.00,,2013-10-21 04:04:00,
2013-10-21 00:14:00,41.0,37.0,29.97,SE,134,0.0,0.0,84,0.00,,,0.00,,2013-10-21 04:14:00,
2013-10-21 00:24:00,42.0,37.0,29.97,SE,134,0.0,0.0,83,0.00,,,0.00,,2013-10-21 04:24:00,
2013-10-21 00:34:00,42.0,37.0,29.97,SE,134,0.0,0.0,83,0.00,,,0.00,,2013-10-21 04:34:00,
2013-10-21 00:44:00,42.0,37.0,29.97,SE,134,0.0,0.0,83,0.00,,,0.00,,2013-10-21 04:44:00,
2013-10-21 00:53:00,41.0,37.0,29.97,SE,134,0.0,0.0,84,0.01,,,0.01,,2013-10-21 04:53:00,
2013-10-21 01:04:00,41.0,37.0,29.97,SE,134,0.0,0.0,84,0.01,,,0.01,,2013-10-21 05:04:00,
2013-10-21 01:13:00,41.0,37.0,29.97,SE,134,0.0,0.0,84,0.01,,,0.01,,2013-10-21 05:13:00,
2013-10-21 01:23:00,41.0,37.0,29.98,SE,134,0.0,0.0,85,0.01,,,0.01,,2013-10-21 05:23:00,
2013-10-21 01:34:00,41.0,37.0,29.98,SE,134,0.0,0.0,85,0.01,,,0.01,,2013-10-21 05:34:00,
2013-10-21 01:43:00,41.0,37.0,29.98,SE,134,0.0,0.0,85,0.01,,,0.01,,2013-10-21 05:43:00,
2013-10-21 01:52:00,40.0,36.0,29.99,SE,134,0.0,0.0,86,0.00,,,0.01,,2013-10-21 05:52:00,
2013-10-21 02:02:00,40.0,36.0,29.99,SE,134,0.0,0.0,86,0.00,,,0.01,,2013-10-21 06:02:00,
2013-10-21 02:12:00,40.0,36.0,29.99,SE,134,0.0,0.0,86,0.00,,,0.01,,2013-10-21 06:12:00,
2013-10-21 02:22:00,40.0,36.0,30.00,SE,134,0.0,0.0,86,0.00,,,0.01,,2013-10-21 06:22:00,
2013-10-21 02:32:00,40.0,36.0,30.00,SE,134,0.0,0.0,86,0.00,,,0.01,,2013-10-21 06:32:00,
2013-10-21 02:42:00,40.0,36.0,30.00,SE,134,0.0,0.0,86,0.00,,,0.01,,2013-10-21 06:42:00,
2013-10-21 02:52:00,40.0,37.0,30.00,SE,134,0.0,0.0,88,0.00,,,0.01,,2013-10-21 06:52:00,
2013-10-21 03:02:00,40.0,37.0,30.00,SE,134,0.0,0.0,88,0.00,,,0.01,,2013-10-21 07:02:00,
2013-10-21 03:12:00,40.0,37.0,30.00,SE,134,0.0,0.0,88,0.00,,,0.01,,2013-10-21 07:12:00,
2013-10-21 03:22:00,39.0,36.0,30.01,SE,134,0.0,0.0,89,0.00,,,0.01,,2013-10-21 07:22:00,
2013-10-21 03:32:00,39.0,36.0,30.01,SE,134,0.0,0.0,89,0.00,,,0.01,,2013-10-21 07:32:00,
2013-10-21 03:43:00,39.0,36.0,30.01,SE,134,0.0,0.0,89,0.00,,,0.01,,2013-10-21 07:43:00,
2013-10-21 03:52:00,39.0,36.0,30.01,SE,134,0.0,0.0,89,0.00,,,0.01,,2013-10-21 07:52:00,
2013-10-21 04:03:00,39.0,36.0,30.01,SE,134,0.0,0.0,89,0.00,,,0.01,,2013-10-21 08:03:00,
2013-10-21 04:12:00,39.0,36.0,30.01,SE,134,0.0,0.0,89,0.00,,,0.01,,2013-10-21 08:12:00,
2013-10-21 04:22:00,38.0,35.0,30.02,SE,134,0.0,0.0,90,0.00,,,0.01,,2013-10-21 08:22:00,
2013-10-21 04:32:00,38.0,35.0,30.02,SE,134,0.0,0.0,90,0.00,,,0.01,,2013-10-21 08:32:00,
2013-10-21 04:42:00,38.0,35.0,30.02,SE,134,0.0,0.0,90,0.00,,,0.01,,2013-10-21 08:42:00,
2013-10-21 04:52:00,38.0,36.0,30.02,SE,134,0.0,0.0,91,0.00,,,0.01,,2013-10-21 08:52:00,
2013-10-21 05:02:00,38.0,36.0,30.02,SE,134,0.0,0.0,91,0.00,,,0.01,,2013-10-21 09:02:00,
2013-10-21 05:11:00,38.0,36.0,30.02,SE,134,0.0,0.0,91,0.00,,,0.01,,2013-10-21 09:11:00,
2013-10-21 05:22:00,37.0,35.0,30.03,SE,134,0.0,0.0,92,0.00,,,0.01,,2013-10-21 09:22:00,
2013-10-21 05:33:00,37.0,35.0,30.03,SE,134,0.0,0.0,92,0.00,,,0.01,,2013-10-21 09:33:00,
2013-10-21 05:43:00,37.0,35.0,30.03,SE,134,0.0,0.0,92,0.00,,,0.01,,2013-10-21 09:43:00,
2013-10-21 05:54:00,37.0,35.0,30.04,SE,134,0.0,0.0,93,0.00,,,0.01,,2013-10-21 09:54:00,
2013-10-21 06:03:00,37.0,35.0,30.04,SE,134,0.0,0.0,93,0.00,,,0.01,,2013-10-21 10:03:00,
2013-10-21 06:13:00,37.0,35.0,30.04,SE,134,0.0,0.0,93,0.00,,,0.01,,2013-10-21 10:13:00,
2013-10-21 06:23:00,36.0,34.0,30.03,SE,134,0.0,0.0,92,0.00,,,0.01,,2013-10-21 10:23:00,
2013-10-21 06:33:00,36.0,34.0,30.03,SE,134,0.0,0.0,92,0.00,,,0.01,,2013-10-21 10:33:00,
2013-10-21 06:43:00,36.0,34.0,30.03,SE,134,0.0,0.0,92,0.00,,,0.01,,2013-10-21 10:43:00,
2013-10-21 06:52:00,36.0,34.0,30.05,SE,134,0.0,0.0,93,0.00,,,0.01,,2013-10-21 10:52:00,
2013-10-21 07:02:00,36.0,34.0,30.05,SE,134,0.0,0.0,93,0.00,,,0.01,,2013-10-21 11:02:00,
2013-10-21 07:12:00,36.0,34.0,30.05,SE,134,0.0,0.0,93,0.00,,,0.01,,2013-10-21 11:12:00,
2013-10-21 07:22:00,35.0,33.0,30.05,SE,134,0.0,0.0,93,0.00,,,0.01,,2013-10-21 11:22:00,
2013-10-21 07:33:00,35.0,33.0,30.05,SE,134,0.0,0.0,93,0.00,,,0.01,,2013-10-21 11:33:00,
2013-10-21 07:42:00,35.0,33.0,30.05,SE,134,0.0,0.0,93,0.00,,,0.01,,2013-10-21 11:42:00,
2013-10-21 07:52:00,35.0,33.0,30.06,SE,134,0.0,0.0,94,0.00,,,0.01,,2013-10-21 11:52:00,
2013-10-21 08:01:00,35.0,33.0,30.06,SE,134,0.0,0.0,94,0.00,,,0.01,,2013-10-21 12:01:00,
2013-10-21 08:12:00,35.0,33.0,30.06,SE,134,0.0,0.0,94,0.00,,,0.01,,2013-10-21 12:12:00,
2013-10-21 08:22:00,35.0,34.0,30.06,SE,134,0.0,0.0,95,0.00,,,0.01,,2013-10-21 12:22:00,
2013-10-21 08:32:00,35.0,34.0,30.06,SE,134,0.0,0.0,95,0.00,,,0.01,,2013-10-21 12:32:00,
2013-10-21 08:42:00,35.0,34.0,30.06,SE,134,0.0,0.0,95,0.00,,,0.01,,2013-10-21 12:42:00,
2013-10-21 08:52:00,36.0,35.0,30.07,SE,134,0.0,0.0,96,0.00,,,0.01,,2013-10-21 12:52:00,
2013-10-21 09:11:00,36.0,35.0,30.07,SE,134,0.0,0.0,96,0.00,,,0.01,,2013-10-21 13:11:00,
2013-10-21 09:22:00,39.0,38.0,30.07,SE,134,0.0,0.0,95,0.00,,,0.01,,2013-10-21 13:22:00,
2013-10-21 09:32:00,39.0,38.0,30.07,SE,134,0.0,0.0,95,0.00,,,0.01,,2013-10-21 13:32:00,
2013-10-21 09:42:00,39.0,38.0,30.07,SE,134,0.0,0.0,95,0.00,,,0.01,,2013-10-21 13:42:00,
2013-10-21 09:52:00,42.0,39.0,30.08,SE,134,0.0,0.0,89,0.00,,,0.01,,2013-10-21 13:52:00,
2013-10-21 10:02:00,42.0,39.0,30.08,SE,134,0.0,0.0,89,0.00,,,0.01,,2013-10-21 14:02:00,
2013-10-21 10:12:00,42.0,39.0,30.08,SE,134,0.0,0.0,89,0.00,,,0.01,,2013-10-21 14:12:00,
2013-10-21 10:22:00,45.0,40.0,30.07,SE,134,0.0,0.0,83,0.00,,,0.01,,2013-10-21 14:22:00,
2013-10-21 10:32:00,45.0,40.0,30.07,SE,134,0.0,0.0,83,0.00,,,0.01,,2013-10-21 14:32:00,
2013-10-21 10:42:00,45.0,40.0,30.07,SE,134,0.0,0.0,83,0.00,,,0.01,,2013-10-21 14:42:00,
2013-10-21 10:52:00,49.0,42.0,30.06,SE,144,0.0,1.0,76,0.00,,,0.01,,2013-10-21 14:52:00,
2013-10-21 11:02:00,49.0,42.0,30.06,SE,144,0.0,1.0,76,0.00,,,0.01,,2013-10-21 15:02:00,
2013-10-21 11:12:00,49.0,42.0,30.06,SE,144,0.0,1.0,76,0.00,,,0.01,,2013-10-21 15:12:00,
2013-10-21 11:22:00,52.0,42.0,30.06,SSE,150,0.0,1.0,68,0.00,,,0.01,,2013-10-21 15:22:00,
2013-10-21 11:33:00,52.0,42.0,30.06,SSE,150,0.0,1.0,68,0.00,,,0.01,,2013-10-21 15:33:00,
2013-10-21 11:43:00,52.0,42.0,30.06,SSE,150,0.0,1.0,68,0.00,,,0.01,,2013-10-21 15:43:00,
2013-10-21 11:54:00,55.0,43.0,30.05,South,181,0.0,1.0,63,0.00,,,0.01,,2013-10-21 15:54:00,
2013-10-21 12:03:00,55.0,43.0,30.05,South,181,0.0,1.0,63,0.00,,,0.01,,2013-10-21 16:03:00,
2013-10-21 12:13:00,55.0,43.0,30.05,South,181,0.0,1.0,63,0.00,,,0.01,,2013-10-21 16:13:00,
2013-10-21 12:23:00,57.0,42.0,30.05,SW,234,1.0,3.0,58,0.00,,,0.01,,2013-10-21 16:23:00,
2013-10-21 12:33:00,57.0,42.0,30.05,SW,234,1.0,3.0,58,0.00,,,0.01,,2013-10-21 16:33:00,
2013-10-21 12:43:00,57.0,42.0,30.05,SW,234,1.0,3.0,58,0.00,,,0.01,,2013-10-21 16:43:00,
2013-10-21 12:54:00,60.0,43.0,30.03,East,80,1.0,2.0,54,0.00,,,0.01,,2013-10-21 16:54:00,
2013-10-21 13:02:00,60.0,43.0,30.03,East,80,1.0,2.0,54,0.00,,,0.01,,2013-10-21 17:02:00,
2013-10-21 13:12:00,60.0,43.0,30.03,East,80,1.0,2.0,54,0.00,,,0.01,,2013-10-21 17:12:00,
2013-10-21 13:22:00,62.0,44.0,30.02,SW,218,0.0,2.0,51,0.00,,,0.01,,2013-10-21 17:22:00,
2013-10-21 13:34:00,62.0,44.0,30.02,SW,218,0.0,2.0,51,0.00,,,0.01,,2013-10-21 17:34:00,
2013-10-21 13:43:00,62.0,44.0,30.02,SW,218,0.0,2.0,51,0.00,,,0.01,,2013-10-21 17:43:00,
2013-10-21 13:53:00,64.0,44.0,30.01,SSE,165,0.0,2.0,49,0.00,,,0.01,,2013-10-21 17:53:00,
2013-10-21 14:02:00,64.0,44.0,30.01,SSE,165,0.0,2.0,49,0.00,,,0.01,,2013-10-21 18:02:00,
2013-10-21 14:12:00,64.0,44.0,30.01,SSE,165,0.0,2.0,49,0.00,,,0.01,,2013-10-21 18:12:00,
2013-10-21 14:22:00,64.0,44.0,30.00,SSE,167,0.0,2.0,48,0.00,,,0.01,,2013-10-21 18:22:00,
2013-10-21 14:32:00,64.0,44.0,30.00,SSE,167,0.0,2.0,48,0.00,,,0.01,,2013-10-21 18:32:00,
2013-10-21 14:42:00,64.0,44.0,30.00,SSE,167,0.0,2.0,48,0.00,,,0.01,,2013-10-21 18:42:00,
2013-10-21 14:52:00,64.0,43.0,29.99,SSE,167,0.0,4.0,47,0.00,,,0.01,,2013-10-21 18:52:00,
2013-10-21 15:02:00,64.0,43.0,29.99,SSE,167,0.0,4.0,47,0.00,,,0.01,,2013-10-21 19:02:00,
2013-10-21 15:11:00,64.0,43.0,29.99,SSE,167,0.0,4.0,47,0.00,,,0.01,,2013-10-21 19:11:00,
2013-10-21 15:22:00,63.0,44.0,29.98,SSW,196,0.0,0.0,49,0.00,,,0.01,,2013-10-21 19:22:00,
2013-10-21 15:32:00,63.0,44.0,29.98,SSW,196,0.0,0.0,49,0.00,,,0.01,,2013-10-21 19:32:00,
2013-10-21 15:42:00,63.0,44.0,29.98,SSW,196,0.0,0.0,49,0.00,,,0.01,,2013-10-21 19:42:00,
2013-10-21 15:52:00,63.0,45.0,29.98,South,184,0.0,1.0,52,0.00,,,0.01,,2013-10-21 19:52:00,
2013-10-21 16:02:00,63.0,45.0,29.98,South,184,0.0,1.0,52,0.00,,,0.01,,2013-10-21 20:02:00,
2013-10-21 16:12:00,63.0,45.0,29.98,South,184,0.0,1.0,52,0.00,,,0.01,,2013-10-21 20:12:00,
2013-10-21 16:22:00,62.0,43.0,29.97,SW,221,0.0,4.0,49,0.00,,,0.01,,2013-10-21 20:22:00,
2013-10-21 16:32:00,62.0,43.0,29.97,SW,221,0.0,4.0,49,0.00,,,0.01,,2013-10-21 20:32:00,
2013-10-21 16:43:00,62.0,43.0,29.97,SW,221,0.0,4.0,49,0.00,,,0.01,,2013-10-21 20:43:00,
2013-10-21 16:53:00,62.0,43.0,29.97,SW,231,0.0,1.0,50,0.00,,,0.01,,2013-10-21 20:53:00,
2013-10-21 17:03:00,62.0,43.0,29.97,SW,231,0.0,1.0,50,0.00,,,0.01,,2013-10-21 21:03:00,
2013-10-21 17:12:00,62.0,43.0,29.97,SW,231,0.0,1.0,50,0.00,,,0.01,,2013-10-21 21:12:00,
2013-10-21 17:22:00,60.0,48.0,29.98,SW,232,0.0,0.0,64,0.00,,,0.01,,2013-10-21 21:22:00,
2013-10-21 17:34:00,60.0,48.0,29.98,SW,232,0.0,0.0,64,0.00,,,0.01,,2013-10-21 21:34:00,
2013-10-21 17:54:00,58.0,49.0,29.98,SW,232,0.0,0.0,72,0.00,,,0.01,,2013-10-21 21:54:00,
2013-10-21 18:04:00,58.0,49.0,29.98,SW,232,0.0,0.0,72,0.00,,,0.01,,2013-10-21 22:04:00,
2013-10-21 18:13:00,58.0,49.0,29.98,SW,232,0.0,0.0,72,0.00,,,0.01,,2013-10-21 22:13:00,
2013-10-21 18:24:00,55.0,48.0,29.98,SW,232,0.0,0.0,77,0.00,,,0.01,,2013-10-21 22:24:00,
2013-10-21 18:34:00,55.0,48.0,29.98,SW,232,0.0,0.0,77,0.00,,,0.01,,2013-10-21 22:34:00,
2013-10-21 18:44:00,55.0,48.0,29.98,SW,232,0.0,0.0,77,0.00,,,0.01,,2013-10-21 22:44:00,
2013-10-21 18:54:00,53.0,48.0,29.98,SW,232,0.0,0.0,82,0.00,,,0.01,,2013-10-21 22:54:00,
2013-10-21 19:03:00,53.0,48.0,29.98,SW,232,0.0,0.0,82,0.00,,,0.01,,2013-10-21 23:03:00,
2013-10-21 19:13:00,53.0,48.0,29.98,SW,232,0.0,0.0,82,0.00,,,0.01,,2013-10-21 23:13:00,
2013-10-21 19:22:00,52.0,47.0,29.99,SW,232,0.0,0.0,84,0.00,,,0.01,,2013-10-21 23:22:00,
2013-10-21 19:34:00,52.0,47.0,29.99,SW,232,0.0,0.0,84,0.00,,,0.01,,2013-10-21 23:34:00,
2013-10-21 19:42:00,52.0,47.0,29.99,SW,232,0.0,0.0,84,0.00,,,0.01,,2013-10-21 23:42:00,
2013-10-21 19:53:00,52.0,47.0,29.99,SW,232,0.0,0.0,84,0.00,,,0.01,,2013-10-21 23:53:00,
2013-10-21 20:02:00,52.0,47.0,29.99,SW,232,0.0,0.0,84,0.00,,,0.01,,2013-10-22 00:02:00,
2013-10-21 20:12:00,52.0,47.0,29.99,SW,232,0.0,0.0,84,0.00,,,0.01,,2013-10-22 00:12:00,
2013-10-21 20:22:00,51.0,47.0,29.98,SW,232,0.0,0.0,85,0.00,,,0.01,,2013-10-22 00:22:00,
2013-10-21 20:32:00,51.0,47.0,29.98,SW,232,0.0,0.0,85,0.00,,,0.01,,2013-10-22 00:32:00,
2013-10-21 20:42:00,51.0,47.0,29.98,SW,232,0.0,0.0,85,0.00,,,0.01,,2013-10-22 00:42:00,
2013-10-21 20:53:00,50.0,46.0,29.98,SW,232,0.0,0.0,86,0.00,,,0.01,,2013-10-22 00:53:00,
2013-10-21 21:03:00,50.0,46.0,29.98,SW,232,0.0,0.0,86,0.00,,,0.01,,2013-10-22 01:03:00,
2013-10-21 21:12:00,50.0,46.0,29.98,SW,232,0.0,0.0,86,0.00,,,0.01,,2013-10-22 01:12:00,
2013-10-21 21:22:00,49.0,45.0,29.98,SW,232,0.0,0.0,87,0.00,,,0.01,,2013-10-22 01:22:00,
2013-10-21 21:32:00,49.0,45.0,29.98,SW,232,0.0,0.0,87,0.00,,,0.01,,2013-10-22 01:32:00,
2013-10-21 21:42:00,49.0,45.0,29.98,SW,232,0.0,0.0,87,0.00,,,0.01,,2013-10-22 01:42:00,
2013-10-21 21:53:00,49.0,45.0,29.98,SW,233,0.0,0.0,86,0.00,,,0.01,,2013-10-22 01:53:00,
2013-10-21 22:02:00,49.0,45.0,29.98,SW,233,0.0,0.0,86,0.00,,,0.01,,2013-10-22 02:02:00,
2013-10-21 22:12:00,49.0,45.0,29.98,SW,233,0.0,0.0,86,0.00,,,0.01,,2013-10-22 02:12:00,
2013-10-21 22:22:00,49.0,45.0,29.98,SW,233,0.0,0.0,85,0.00,,,0.01,,2013-10-22 02:22:00,
2013-10-21 22:32:00,49.0,45.0,29.98,SW,233,0.0,0.0,85,0.00,,,0.01,,2013-10-22 02:32:00,
2013-10-21 22:43:00,49.0,45.0,29.98,SW,233,0.0,0.0,85,0.00,,,0.01,,2013-10-22 02:43:00,
2013-10-21 22:52:00,49.0,45.0,29.97,SW,233,0.0,0.0,85,0.00,,,0.01,,2013-10-22 02:52:00,
2013-10-21 23:03:00,49.0,45.0,29.97,SW,233,0.0,0.0,85,0.00,,,0.01,,2013-10-22 03:03:00,
2013-10-21 23:12:00,49.0,45.0,29.97,SW,233,0.0,0.0,85,0.00,,,0.01,,2013-10-22 03:12:00,
2013-10-21 23:23:00,48.0,43.0,29.96,SW,233,0.0,0.0,84,0.00,,,0.01,,2013-10-22 03:23:00,
2013-10-21 23:34:00,48.0,43.0,29.96,SW,233,0.0,0.0,84,0.00,,,0.01,,2013-10-22 03:34:00,
2013-10-21 23:45:00,48.0,43.0,29.96,SW,233,0.0,0.0,84,0.00,,,0.01,,2013-10-22 03:45:00,
2013-10-21 23:55:00,48.0,44.0,29.96,SW,233,0.0,0.0,85,0.00,,,0.01,,2013-10-22 03:55:00,